createdAt,value
2018-07-31T00:00:10.664Z,93.80
2018-07-31T00:05:14.753Z,94.00
2018-07-31T00:15:22.715Z,94.50
2018-07-31T00:20:26.768Z,94.50
2018-07-31T00:25:30.854Z,94.60
2018-07-31T00:40:42.541Z,95.20
2018-07-31T00:45:46.590Z,95.00
2018-07-31T00:50:50.699Z,95.20
2018-07-31T00:55:54.779Z,95.40
2018-07-31T01:06:02.662Z,95.60
2018-07-31T01:11:06.760Z,95.80
2018-07-31T01:21:14.643Z,95.60
2018-07-31T01:36:27.257Z,95.90
2018-07-31T01:41:31.334Z,96.10
2018-07-31T01:46:35.397Z,96.20
2018-07-31T02:01:47.102Z,96.30
2018-07-31T02:06:51.156Z,96.70
2018-07-31T02:11:55.317Z,96.90
2018-07-31T02:22:03.188Z,97.10
2018-07-31T02:32:11.080Z,97.20
2018-07-31T02:42:18.946Z,97.50
2018-07-31T02:47:24.030Z,97.80
2018-07-31T02:52:28.120Z,98.00
2018-07-31T02:57:32.178Z,98.30
2018-07-31T03:07:40.044Z,98.60
2018-07-31T03:12:44.107Z,98.60
2018-07-31T03:17:48.167Z,98.60
2018-07-31T03:27:56.050Z,98.80
2018-07-31T03:38:04.266Z,99.10
2018-07-31T03:53:16.213Z,99.10
2018-07-31T04:08:28.047Z,99.00
2018-07-31T04:18:35.945Z,98.90
2018-07-31T04:23:40.068Z,98.80
2018-07-31T04:28:44.147Z,99.10
2018-07-31T04:33:48.221Z,98.80
2018-07-31T04:38:52.366Z,98.50
2018-07-31T04:49:00.270Z,98.60
2018-07-31T04:59:08.250Z,98.40
2018-07-31T05:04:12.300Z,98.20
2018-07-31T05:19:24.027Z,98.10
2018-07-31T05:24:28.123Z,98.10
2018-07-31T05:29:32.169Z,98.10
2018-07-31T05:39:40.259Z,97.10
2018-07-31T05:54:52.147Z,94.30
2018-07-31T05:59:56.207Z,93.50
2018-07-31T06:05:00.256Z,91.90
2018-07-31T06:25:18.431Z,85.00
2018-07-31T06:30:22.513Z,82.90
2018-07-31T06:40:30.383Z,82.60
2018-07-31T06:45:34.469Z,83.30
2018-07-31T06:50:38.607Z,85.50
2018-07-31T06:55:42.672Z,86.30
2018-07-31T07:00:46.837Z,87.90
2018-07-31T07:05:51.270Z,87.90
2018-07-31T07:10:55.421Z,89.30
2018-07-31T07:15:59.517Z,89.40
2018-07-31T07:21:03.566Z,88.80
2018-07-31T07:26:07.639Z,87.80
2018-07-31T07:36:15.533Z,80.90
2018-07-31T07:41:20.180Z,77.10
2018-07-31T07:46:24.272Z,76.10
2018-07-31T07:51:28.347Z,74.50
2018-07-31T07:56:32.399Z,74.10
2018-07-31T08:06:40.253Z,70.30
2018-07-31T08:11:51.103Z,67.80
2018-07-31T08:16:55.214Z,68.40
2018-07-31T08:21:59.282Z,71.00
2018-07-31T08:27:03.345Z,67.10
2018-07-31T08:32:07.410Z,63.90
2018-07-31T08:37:11.512Z,62.40
2018-07-31T08:42:15.661Z,58.80
2018-07-31T08:47:19.761Z,56.60
2018-07-31T08:52:23.885Z,52.80
2018-07-31T08:57:28.038Z,50.90
2018-07-31T09:07:36.159Z,50.50
2018-07-31T09:22:47.862Z,54.70
2018-07-31T09:27:51.897Z,51.20
2018-07-31T09:38:05.078Z,49.00
2018-07-31T09:43:09.127Z,50.40
2018-07-31T09:48:14.053Z,46.50
2018-07-31T09:53:18.126Z,44.80
2018-07-31T10:03:26.026Z,45.30
2018-07-31T10:08:30.195Z,46.00
2018-07-31T10:13:34.245Z,45.60
2018-07-31T10:23:42.083Z,48.60
2018-07-31T10:28:46.114Z,50.10
2018-07-31T10:33:50.141Z,49.30
2018-07-31T10:38:54.241Z,48.30
2018-07-31T10:43:58.336Z,48.70
2018-07-31T10:49:02.377Z,50.50
2018-07-31T10:54:06.487Z,49.30
2018-07-31T10:59:10.575Z,47.50
2018-07-31T11:04:14.656Z,47.90
2018-07-31T11:09:18.711Z,48.90
2018-07-31T11:19:26.597Z,49.70
2018-07-31T11:24:30.722Z,49.70
2018-07-31T11:29:34.813Z,49.20
2018-07-31T11:34:39.113Z,50.50
2018-07-31T11:39:43.168Z,48.80
2018-07-31T11:44:47.260Z,49.20
2018-07-31T12:10:06.801Z,54.10
2018-07-31T12:15:10.870Z,54.60
2018-07-31T12:20:14.945Z,54.80
2018-07-31T12:25:19.019Z,55.30
2018-07-31T12:30:23.053Z,55.30
2018-07-31T12:35:27.300Z,55.50
2018-07-31T12:40:31.371Z,55.70
2018-07-31T12:45:35.453Z,55.70
2018-07-31T12:50:39.529Z,55.70
2018-07-31T12:55:43.599Z,54.70
2018-07-31T13:00:47.654Z,54.80
2018-07-31T13:05:51.715Z,55.00
2018-07-31T13:10:56.035Z,55.00
2018-07-31T13:21:03.903Z,55.40
2018-07-31T13:26:08.177Z,55.90
2018-07-31T13:31:12.258Z,56.00
2018-07-31T13:36:16.330Z,56.00
2018-07-31T13:46:24.583Z,56.60
2018-07-31T13:51:28.726Z,57.10
2018-07-31T14:01:36.693Z,56.60
2018-07-31T14:06:40.735Z,57.20
2018-07-31T14:11:44.812Z,56.30
2018-07-31T14:16:48.873Z,56.90
2018-07-31T14:21:52.949Z,57.00
2018-07-31T14:32:00.843Z,58.10
2018-07-31T14:37:04.920Z,58.10
2018-07-31T14:42:09.351Z,57.50
2018-07-31T14:47:14.032Z,57.80
2018-07-31T14:52:18.161Z,58.00
2018-07-31T14:57:22.261Z,58.50
2018-07-31T15:12:34.040Z,57.90
2018-07-31T15:22:42.055Z,57.00
2018-07-31T15:27:46.119Z,56.70
2018-07-31T15:42:57.944Z,56.70
2018-07-31T15:53:05.895Z,55.90
2018-07-31T16:18:25.574Z,55.00
2018-07-31T16:23:29.857Z,55.10
2018-07-31T16:28:33.957Z,55.00
2018-07-31T16:33:37.941Z,55.20
2018-07-31T16:43:45.841Z,54.70
2018-07-31T16:48:49.889Z,54.50
2018-07-31T16:53:53.941Z,54.30
2018-07-31T16:58:57.998Z,53.80
2018-07-31T17:04:02.054Z,53.50
2018-07-31T17:19:14.941Z,53.70
2018-07-31T17:29:22.995Z,53.10
2018-07-31T17:49:38.601Z,53.50
2018-07-31T17:59:46.471Z,53.20
2018-07-31T18:04:50.531Z,53.00
2018-07-31T18:09:54.617Z,52.90
2018-07-31T18:14:59.387Z,52.70
2018-07-31T18:20:03.453Z,53.10
2018-07-31T18:25:07.633Z,53.40
2018-07-31T18:45:24.046Z,54.40
2018-07-31T18:50:28.167Z,54.80
2018-07-31T18:55:32.415Z,54.70
2018-07-31T19:10:44.244Z,55.00
2018-07-31T19:15:48.375Z,55.40
2018-07-31T19:25:56.285Z,56.40
2018-07-31T19:36:04.237Z,58.00
2018-07-31T19:41:08.281Z,59.10
2018-07-31T19:46:12.389Z,59.20
2018-07-31T19:51:16.531Z,59.60
2018-07-31T19:56:21.098Z,60.20
2018-07-31T20:01:25.165Z,61.70
2018-07-31T20:06:29.226Z,61.80
2018-07-31T20:16:37.099Z,63.70
2018-07-31T20:26:45.052Z,66.60
2018-07-31T20:41:56.939Z,65.10
2018-07-31T20:47:01.054Z,66.30
2018-07-31T21:02:12.768Z,68.20
2018-07-31T21:17:24.539Z,70.70
2018-07-31T21:27:32.526Z,72.30
2018-07-31T21:32:36.732Z,72.80
2018-07-31T21:37:40.790Z,73.30
2018-07-31T21:42:44.893Z,73.80
2018-07-31T21:47:49.038Z,75.70
2018-07-31T21:52:53.105Z,76.80
2018-07-31T21:57:57.467Z,77.50
2018-07-31T22:03:01.874Z,78.30
2018-07-31T22:08:05.951Z,79.60
2018-07-31T22:13:10.063Z,79.40
2018-07-31T22:18:14.113Z,80.70
2018-07-31T22:23:18.317Z,80.70
2018-07-31T22:33:26.267Z,82.00
2018-07-31T22:38:30.305Z,82.30
2018-07-31T22:43:34.453Z,82.90
2018-07-31T22:48:38.454Z,83.20
2018-07-31T22:53:42.522Z,84.00
2018-07-31T22:58:46.597Z,84.80
2018-07-31T23:08:54.510Z,86.00
2018-07-31T23:13:58.595Z,86.60
2018-07-31T23:19:02.610Z,86.50
2018-07-31T23:24:06.674Z,87.00
2018-07-31T23:29:10.767Z,87.50
2018-07-31T23:34:14.829Z,88.00
2018-07-31T23:44:22.724Z,88.70
2018-07-31T23:49:27.793Z,88.80
2018-07-31T23:54:31.869Z,88.70
2018-07-31T23:59:35.933Z,89.20
